sensor_id;sensor_type;location;lat;lon;timestamp;pressure;altitude;pressure_sealevel;temperature;humidity
55466;BME280;41329;41.594;23.810;2023-12-20T00:02:07;95709.13;;;3.82;67.10
55466;BME280;41329;41.594;23.810;2023-12-20T00:04:32;95720.56;;;3.84;66.96
55466;BME280;41329;41.594;23.810;2023-12-20T00:06:57;95691.09;;;3.73;66.63
55466;BME280;41329;41.594;23.810;2023-12-20T00:09:23;95712.19;;;3.81;66.17
55466;BME280;41329;41.594;23.810;2023-12-20T00:11:48;95710.88;;;3.61;65.38
55466;BME280;41329;41.594;23.810;2023-12-20T00:14:13;95711.34;;;3.63;65.28
55466;BME280;41329;41.594;23.810;2023-12-20T00:16:39;95647.19;;;3.13;65.07
55466;BME280;41329;41.594;23.810;2023-12-20T00:19:04;95714.50;;;3.48;65.16
55466;BME280;41329;41.594;23.810;2023-12-20T00:21:30;95700.97;;;3.35;65.54
55466;BME280;41329;41.594;23.810;2023-12-20T00:23:55;95707.69;;;3.29;65.84
55466;BME280;41329;41.594;23.810;2023-12-20T00:26:20;95699.47;;;3.20;66.23
55466;BME280;41329;41.594;23.810;2023-12-20T00:28:46;95705.41;;;3.14;66.56
55466;BME280;41329;41.594;23.810;2023-12-20T00:31:11;95697.50;;;3.12;66.75
55466;BME280;41329;41.594;23.810;2023-12-20T00:33:37;95671.09;;;2.99;66.79
55466;BME280;41329;41.594;23.810;2023-12-20T00:36:02;95696.69;;;3.12;66.94
55466;BME280;41329;41.594;23.810;2023-12-20T00:38:28;95692.66;;;3.09;66.80
55466;BME280;41329;41.594;23.810;2023-12-20T00:40:53;95695.72;;;3.08;66.72
55466;BME280;41329;41.594;23.810;2023-12-20T00:43:18;95689.94;;;3.09;66.85
55466;BME280;41329;41.594;23.810;2023-12-20T00:45:44;95681.25;;;3.07;67.00
55466;BME280;41329;41.594;23.810;2023-12-20T00:48:10;95677.53;;;3.03;66.99
55466;BME280;41329;41.594;23.810;2023-12-20T00:50:35;95651.44;;;2.89;66.63
55466;BME280;41329;41.594;23.810;2023-12-20T00:53:00;95673.06;;;3.07;66.85
55466;BME280;41329;41.594;23.810;2023-12-20T00:55:26;95679.63;;;3.06;66.89
55466;BME280;41329;41.594;23.810;2023-12-20T00:57:51;95677.50;;;2.95;67.34
55466;BME280;41329;41.594;23.810;2023-12-20T01:00:18;95649.31;;;2.77;67.65
55466;BME280;41329;41.594;23.810;2023-12-20T01:02:43;95679.31;;;2.99;67.66
55466;BME280;41329;41.594;23.810;2023-12-20T01:05:09;95677.34;;;3.00;67.82
55466;BME280;41329;41.594;23.810;2023-12-20T01:07:35;95678.63;;;2.94;67.33
55466;BME280;41329;41.594;23.810;2023-12-20T01:10:00;95671.72;;;2.96;66.70
55466;BME280;41329;41.594;23.810;2023-12-20T01:12:26;95653.50;;;2.83;66.15
55466;BME280;41329;41.594;23.810;2023-12-20T01:14:51;95649.78;;;2.79;66.13
55466;BME280;41329;41.594;23.810;2023-12-20T01:17:16;95649.47;;;2.81;66.45
55466;BME280;41329;41.594;23.810;2023-12-20T01:19:42;95660.09;;;2.82;66.77
55466;BME280;41329;41.594;23.810;2023-12-20T01:22:07;95640.91;;;2.74;67.59
55466;BME280;41329;41.594;23.810;2023-12-20T01:24:33;95649.94;;;2.83;67.99
55466;BME280;41329;41.594;23.810;2023-12-20T01:26:58;95643.06;;;2.85;67.84
55466;BME280;41329;41.594;23.810;2023-12-20T01:29:23;95645.97;;;2.89;68.01
55466;BME280;41329;41.594;23.810;2023-12-20T01:31:49;95650.16;;;2.86;67.82
55466;BME280;41329;41.594;23.810;2023-12-20T01:34:15;95641.75;;;2.83;67.62
55466;BME280;41329;41.594;23.810;2023-12-20T01:36:40;95644.03;;;2.89;67.49
55466;BME280;41329;41.594;23.810;2023-12-20T01:39:06;95626.19;;;2.83;67.67
55466;BME280;41329;41.594;23.810;2023-12-20T01:41:31;95631.19;;;2.90;67.26
55466;BME280;41329;41.594;23.810;2023-12-20T01:43:56;95612.53;;;2.83;67.21
55466;BME280;41329;41.594;23.810;2023-12-20T01:46:22;95622.50;;;2.88;67.00
55466;BME280;41329;41.594;23.810;2023-12-20T01:48:48;95620.88;;;2.87;66.72
55466;BME280;41329;41.594;23.810;2023-12-20T01:51:14;95607.38;;;2.82;66.46
55466;BME280;41329;41.594;23.810;2023-12-20T01:53:40;95585.31;;;2.70;66.00
55466;BME280;41329;41.594;23.810;2023-12-20T01:56:08;95607.69;;;2.80;65.96
55466;BME280;41329;41.594;23.810;2023-12-20T01:58:33;95611.31;;;2.67;65.78
55466;BME280;41329;41.594;23.810;2023-12-20T02:00:59;95583.91;;;2.42;65.99
55466;BME280;41329;41.594;23.810;2023-12-20T02:03:25;95608.03;;;2.48;66.46
55466;BME280;41329;41.594;23.810;2023-12-20T02:05:50;95590.84;;;2.17;66.77
55466;BME280;41329;41.594;23.810;2023-12-20T02:08:16;95576.41;;;2.17;67.06
55466;BME280;41329;41.594;23.810;2023-12-20T02:10:41;95605.72;;;2.33;67.40
55466;BME280;41329;41.594;23.810;2023-12-20T02:13:07;95602.16;;;2.33;67.88
55466;BME280;41329;41.594;23.810;2023-12-20T02:15:32;95588.50;;;2.33;68.21
55466;BME280;41329;41.594;23.810;2023-12-20T02:17:58;95559.06;;;2.21;68.39
55466;BME280;41329;41.594;23.810;2023-12-20T02:20:24;95578.09;;;2.35;69.00
55466;BME280;41329;41.594;23.810;2023-12-20T02:22:49;95576.16;;;2.35;68.94
55466;BME280;41329;41.594;23.810;2023-12-20T02:25:14;95591.13;;;2.38;69.19
55466;BME280;41329;41.594;23.810;2023-12-20T02:27:40;95580.84;;;2.43;68.96
55466;BME280;41329;41.594;23.810;2023-12-20T02:30:06;95552.91;;;2.38;68.89
55466;BME280;41329;41.594;23.810;2023-12-20T02:32:32;95588.13;;;2.48;68.62
55466;BME280;41329;41.594;23.810;2023-12-20T02:34:57;95577.50;;;2.46;68.14
55466;BME280;41329;41.594;23.810;2023-12-20T02:37:23;95571.06;;;2.42;68.13
55466;BME280;41329;41.594;23.810;2023-12-20T02:39:48;95566.56;;;2.38;68.36
55466;BME280;41329;41.594;23.810;2023-12-20T02:42:14;95571.69;;;2.39;68.27
55466;BME280;41329;41.594;23.810;2023-12-20T02:44:39;95560.59;;;2.36;68.55
55466;BME280;41329;41.594;23.810;2023-12-20T02:47:04;95563.00;;;2.37;68.58
55466;BME280;41329;41.594;23.810;2023-12-20T02:49:30;95564.63;;;2.38;69.16
55466;BME280;41329;41.594;23.810;2023-12-20T02:51:55;95543.53;;;2.30;69.29
55466;BME280;41329;41.594;23.810;2023-12-20T02:54:21;95565.75;;;2.37;68.67
55466;BME280;41329;41.594;23.810;2023-12-20T02:56:46;95570.06;;;2.38;68.57
55466;BME280;41329;41.594;23.810;2023-12-20T02:59:12;95567.00;;;2.31;68.79
55466;BME280;41329;41.594;23.810;2023-12-20T03:01:45;95569.84;;;2.26;68.79
55466;BME280;41329;41.594;23.810;2023-12-20T03:04:11;95565.69;;;2.29;69.22
55466;BME280;41329;41.594;23.810;2023-12-20T03:06:37;95563.75;;;2.21;69.68
55466;BME280;41329;41.594;23.810;2023-12-20T03:09:03;95569.50;;;2.19;69.71
55466;BME280;41329;41.594;23.810;2023-12-20T03:11:28;95538.00;;;2.13;69.61
55466;BME280;41329;41.594;23.810;2023-12-20T03:13:55;95522.06;;;2.07;69.57
55466;BME280;41329;41.594;23.810;2023-12-20T03:16:20;95550.22;;;2.16;69.60
55466;BME280;41329;41.594;23.810;2023-12-20T03:18:46;95545.19;;;2.09;69.82
55466;BME280;41329;41.594;23.810;2023-12-20T03:21:11;95530.00;;;1.86;69.88
55466;BME280;41329;41.594;23.810;2023-12-20T03:23:37;95548.13;;;1.91;70.10
55466;BME280;41329;41.594;23.810;2023-12-20T03:26:02;95559.69;;;1.88;69.92
55466;BME280;41329;41.594;23.810;2023-12-20T03:28:29;95561.97;;;1.94;69.71
55466;BME280;41329;41.594;23.810;2023-12-20T03:30:54;95562.78;;;1.95;69.49
55466;BME280;41329;41.594;23.810;2023-12-20T03:33:20;95560.69;;;1.92;69.65
55466;BME280;41329;41.594;23.810;2023-12-20T03:35:45;95557.81;;;1.97;69.71
55466;BME280;41329;41.594;23.810;2023-12-20T03:38:11;95537.75;;;1.93;69.77
55466;BME280;41329;41.594;23.810;2023-12-20T03:40:36;95528.56;;;1.89;69.57
55466;BME280;41329;41.594;23.810;2023-12-20T03:43:01;95519.56;;;1.88;69.63
55466;BME280;41329;41.594;23.810;2023-12-20T03:45:27;95523.09;;;1.89;69.46
55466;BME280;41329;41.594;23.810;2023-12-20T03:47:52;95526.75;;;1.84;69.28
55466;BME280;41329;41.594;23.810;2023-12-20T03:50:24;95528.06;;;1.87;69.38
55466;BME280;41329;41.594;23.810;2023-12-20T03:52:50;95533.47;;;1.78;69.69
55466;BME280;41329;41.594;23.810;2023-12-20T03:55:15;95521.88;;;1.73;69.70
55466;BME280;41329;41.594;23.810;2023-12-20T03:57:41;95482.06;;;1.41;70.16
55466;BME280;41329;41.594;23.810;2023-12-20T04:00:10;95536.81;;;1.75;69.76
55466;BME280;41329;41.594;23.810;2023-12-20T04:02:36;95537.13;;;1.74;70.21
55466;BME280;41329;41.594;23.810;2023-12-20T04:05:02;95538.56;;;1.49;70.76
55466;BME280;41329;41.594;23.810;2023-12-20T04:07:27;95536.84;;;1.53;71.17
55466;BME280;41329;41.594;23.810;2023-12-20T04:09:53;95524.81;;;1.54;70.86
55466;BME280;41329;41.594;23.810;2023-12-20T04:12:18;95524.66;;;1.59;70.82
55466;BME280;41329;41.594;23.810;2023-12-20T04:14:43;95532.25;;;1.62;70.82
55466;BME280;41329;41.594;23.810;2023-12-20T04:17:09;95509.94;;;1.38;70.90
55466;BME280;41329;41.594;23.810;2023-12-20T04:19:34;95516.28;;;1.47;70.81
55466;BME280;41329;41.594;23.810;2023-12-20T04:21:59;95516.38;;;1.42;71.18
55466;BME280;41329;41.594;23.810;2023-12-20T04:24:25;95496.88;;;1.27;71.40
55466;BME280;41329;41.594;23.810;2023-12-20T04:26:50;95516.38;;;1.42;71.68
55466;BME280;41329;41.594;23.810;2023-12-20T04:29:16;95505.59;;;1.37;71.82
55466;BME280;41329;41.594;23.810;2023-12-20T04:31:42;95508.06;;;1.25;72.22
55466;BME280;41329;41.594;23.810;2023-12-20T04:34:07;95507.47;;;1.28;72.60
55466;BME280;41329;41.594;23.810;2023-12-20T04:36:32;95510.06;;;1.33;73.25
55466;BME280;41329;41.594;23.810;2023-12-20T04:38:58;95518.94;;;1.39;73.06
55466;BME280;41329;41.594;23.810;2023-12-20T04:41:24;95495.31;;;1.34;72.99
55466;BME280;41329;41.594;23.810;2023-12-20T04:43:50;95501.75;;;1.38;73.08
55466;BME280;41329;41.594;23.810;2023-12-20T04:46:15;95498.16;;;1.29;73.36
55466;BME280;41329;41.594;23.810;2023-12-20T04:48:41;95512.09;;;1.28;73.96
55466;BME280;41329;41.594;23.810;2023-12-20T04:51:06;95485.28;;;1.21;73.60
55466;BME280;41329;41.594;23.810;2023-12-20T04:53:31;95470.22;;;1.24;73.41
55466;BME280;41329;41.594;23.810;2023-12-20T04:55:57;95491.41;;;1.49;73.53
55466;BME280;41329;41.594;23.810;2023-12-20T04:58:22;95496.06;;;1.48;73.72
55466;BME280;41329;41.594;23.810;2023-12-20T05:00:48;95482.75;;;1.25;73.64
55466;BME280;41329;41.594;23.810;2023-12-20T05:03:13;95458.97;;;0.95;73.80
55466;BME280;41329;41.594;23.810;2023-12-20T05:05:39;95482.13;;;1.06;73.87
55466;BME280;41329;41.594;23.810;2023-12-20T05:08:04;95513.66;;;1.20;73.96
55466;BME280;41329;41.594;23.810;2023-12-20T05:10:30;95519.66;;;1.09;74.58
55466;BME280;41329;41.594;23.810;2023-12-20T05:12:55;95507.50;;;1.15;74.55
55466;BME280;41329;41.594;23.810;2023-12-20T05:15:20;95498.91;;;1.21;74.31
55466;BME280;41329;41.594;23.810;2023-12-20T05:17:46;95510.06;;;1.33;74.49
55466;BME280;41329;41.594;23.810;2023-12-20T05:20:11;95489.06;;;1.34;74.46
55466;BME280;41329;41.594;23.810;2023-12-20T05:22:37;95474.59;;;1.25;74.66
55466;BME280;41329;41.594;23.810;2023-12-20T05:25:02;95484.19;;;1.22;74.75
55466;BME280;41329;41.594;23.810;2023-12-20T05:27:29;95470.66;;;1.17;74.71
55466;BME280;41329;41.594;23.810;2023-12-20T05:29:55;95493.84;;;1.28;74.66
55466;BME280;41329;41.594;23.810;2023-12-20T05:32:23;95482.44;;;1.26;74.64
55466;BME280;41329;41.594;23.810;2023-12-20T05:34:48;95481.19;;;1.32;74.46
55466;BME280;41329;41.594;23.810;2023-12-20T05:37:13;95486.91;;;1.22;74.42
55466;BME280;41329;41.594;23.810;2023-12-20T05:39:39;95478.41;;;1.24;74.77
55466;BME280;41329;41.594;23.810;2023-12-20T05:42:04;95489.19;;;1.29;74.24
55466;BME280;41329;41.594;23.810;2023-12-20T05:44:30;95481.50;;;1.31;73.51
55466;BME280;41329;41.594;23.810;2023-12-20T05:46:55;95463.38;;;1.26;73.72
55466;BME280;41329;41.594;23.810;2023-12-20T05:49:20;95478.66;;;1.36;73.57
55466;BME280;41329;41.594;23.810;2023-12-20T05:51:47;95455.00;;;1.23;73.64
55466;BME280;41329;41.594;23.810;2023-12-20T05:54:12;95473.31;;;1.31;73.89
55466;BME280;41329;41.594;23.810;2023-12-20T05:56:38;95461.00;;;1.11;74.19
55466;BME280;41329;41.594;23.810;2023-12-20T05:59:03;95476.50;;;1.24;74.31
55466;BME280;41329;41.594;23.810;2023-12-20T06:01:29;95475.22;;;1.30;74.17
55466;BME280;41329;41.594;23.810;2023-12-20T06:03:54;95475.75;;;1.32;74.69
55466;BME280;41329;41.594;23.810;2023-12-20T06:06:19;95471.28;;;1.36;74.34
55466;BME280;41329;41.594;23.810;2023-12-20T06:08:45;95464.41;;;1.39;74.75
55466;BME280;41329;41.594;23.810;2023-12-20T06:11:10;95472.31;;;1.49;74.72
55466;BME280;41329;41.594;23.810;2023-12-20T06:13:36;95456.38;;;1.34;74.61
55466;BME280;41329;41.594;23.810;2023-12-20T06:16:01;95464.03;;;1.32;74.62
55466;BME280;41329;41.594;23.810;2023-12-20T06:18:27;95451.97;;;1.24;74.21
55466;BME280;41329;41.594;23.810;2023-12-20T06:20:52;95481.31;;;1.27;74.38
55466;BME280;41329;41.594;23.810;2023-12-20T06:23:17;95474.88;;;1.23;74.39
55466;BME280;41329;41.594;23.810;2023-12-20T06:25:44;95474.16;;;1.31;73.87
55466;BME280;41329;41.594;23.810;2023-12-20T06:28:09;95455.44;;;1.16;73.93
55466;BME280;41329;41.594;23.810;2023-12-20T06:30:35;95463.69;;;1.25;74.30
55466;BME280;41329;41.594;23.810;2023-12-20T06:33:01;95459.00;;;1.25;74.40
55466;BME280;41329;41.594;23.810;2023-12-20T06:35:26;95463.25;;;1.31;74.14
55466;BME280;41329;41.594;23.810;2023-12-20T06:37:52;95467.41;;;1.29;74.24
55466;BME280;41329;41.594;23.810;2023-12-20T06:40:18;95477.91;;;1.22;74.38
55466;BME280;41329;41.594;23.810;2023-12-20T06:42:44;95470.34;;;1.19;74.42
55466;BME280;41329;41.594;23.810;2023-12-20T06:45:09;95470.13;;;1.29;74.24
55466;BME280;41329;41.594;23.810;2023-12-20T06:47:35;95465.47;;;1.29;74.23
55466;BME280;41329;41.594;23.810;2023-12-20T06:50:00;95465.66;;;1.33;74.29
55466;BME280;41329;41.594;23.810;2023-12-20T06:52:26;95452.03;;;1.33;74.79
55466;BME280;41329;41.594;23.810;2023-12-20T06:54:52;95466.81;;;1.40;74.65
55466;BME280;41329;41.594;23.810;2023-12-20T06:57:17;95445.03;;;1.18;74.62
55466;BME280;41329;41.594;23.810;2023-12-20T06:59:44;95448.31;;;1.29;74.41
55466;BME280;41329;41.594;23.810;2023-12-20T07:02:10;95448.75;;;1.22;74.61
55466;BME280;41329;41.594;23.810;2023-12-20T07:04:41;95427.31;;;1.07;74.87
55466;BME280;41329;41.594;23.810;2023-12-20T07:07:07;95422.13;;;0.97;75.27
55466;BME280;41329;41.594;23.810;2023-12-20T07:09:33;95451.91;;;1.16;75.24
55466;BME280;41329;41.594;23.810;2023-12-20T07:11:58;95424.03;;;0.97;75.10
55466;BME280;41329;41.594;23.810;2023-12-20T07:14:23;95421.78;;;0.99;75.21
55466;BME280;41329;41.594;23.810;2023-12-20T07:16:49;95435.75;;;0.97;75.18
55466;BME280;41329;41.594;23.810;2023-12-20T07:19:14;95451.47;;;1.22;74.98
55466;BME280;41329;41.594;23.810;2023-12-20T07:21:39;95439.69;;;1.13;75.14
55466;BME280;41329;41.594;23.810;2023-12-20T07:24:05;95433.94;;;1.15;75.43
55466;BME280;41329;41.594;23.810;2023-12-20T07:26:30;95432.41;;;1.22;75.57
55466;BME280;41329;41.594;23.810;2023-12-20T07:28:56;95425.22;;;1.26;75.48
55466;BME280;41329;41.594;23.810;2023-12-20T07:31:21;95428.59;;;1.32;75.45
55466;BME280;41329;41.594;23.810;2023-12-20T07:33:47;95410.50;;;1.36;75.47
55466;BME280;41329;41.594;23.810;2023-12-20T07:36:12;95421.94;;;1.46;75.48
55466;BME280;41329;41.594;23.810;2023-12-20T07:38:38;95431.75;;;1.47;75.08
55466;BME280;41329;41.594;23.810;2023-12-20T07:41:03;95416.31;;;1.43;75.20
55466;BME280;41329;41.594;23.810;2023-12-20T07:43:29;95390.94;;;1.34;74.94
55466;BME280;41329;41.594;23.810;2023-12-20T07:45:54;95408.81;;;1.48;74.76
55466;BME280;41329;41.594;23.810;2023-12-20T07:48:19;95398.06;;;1.43;74.85
55466;BME280;41329;41.594;23.810;2023-12-20T07:50:45;95406.88;;;1.49;74.97
55466;BME280;41329;41.594;23.810;2023-12-20T07:53:10;95407.47;;;1.37;75.04
55466;BME280;41329;41.594;23.810;2023-12-20T07:55:36;95397.31;;;1.29;75.76
55466;BME280;41329;41.594;23.810;2023-12-20T07:58:01;95398.50;;;1.15;76.50
55466;BME280;41329;41.594;23.810;2023-12-20T08:00:27;95407.06;;;1.22;77.21
55466;BME280;41329;41.594;23.810;2023-12-20T08:02:52;95372.91;;;1.16;77.28
55466;BME280;41329;41.594;23.810;2023-12-20T08:05:18;95406.47;;;1.33;77.50
55466;BME280;41329;41.594;23.810;2023-12-20T08:07:43;95385.19;;;1.13;77.75
55466;BME280;41329;41.594;23.810;2023-12-20T08:10:09;95413.13;;;1.19;78.18
55466;BME280;41329;41.594;23.810;2023-12-20T08:12:34;95374.84;;;0.93;79.30
55466;BME280;41329;41.594;23.810;2023-12-20T08:15:00;95402.31;;;1.36;79.85
55466;BME280;41329;41.594;23.810;2023-12-20T08:17:26;95394.59;;;1.60;80.41
55466;BME280;41329;41.594;23.810;2023-12-20T08:19:51;95387.88;;;1.66;81.40
55466;BME280;41329;41.594;23.810;2023-12-20T08:22:17;95386.66;;;1.80;82.20
55466;BME280;41329;41.594;23.810;2023-12-20T08:24:42;95387.88;;;2.05;82.43
55466;BME280;41329;41.594;23.810;2023-12-20T08:27:08;95388.72;;;2.22;82.82
55466;BME280;41329;41.594;23.810;2023-12-20T08:29:35;95381.53;;;2.35;83.14
55466;BME280;41329;41.594;23.810;2023-12-20T08:32:01;95377.22;;;2.59;83.56
55466;BME280;41329;41.594;23.810;2023-12-20T08:34:27;95371.75;;;2.76;82.72
55466;BME280;41329;41.594;23.810;2023-12-20T08:36:52;95353.91;;;2.87;81.76
55466;BME280;41329;41.594;23.810;2023-12-20T08:39:18;95364.81;;;2.96;79.95
55466;BME280;41329;41.594;23.810;2023-12-20T08:41:43;95369.00;;;2.93;77.87
55466;BME280;41329;41.594;23.810;2023-12-20T08:44:09;95363.25;;;2.86;77.09
55466;BME280;41329;41.594;23.810;2023-12-20T08:46:35;95355.19;;;2.81;77.03
55466;BME280;41329;41.594;23.810;2023-12-20T08:49:01;95326.13;;;2.60;77.19
55466;BME280;41329;41.594;23.810;2023-12-20T08:51:26;95352.28;;;2.95;76.92
55466;BME280;41329;41.594;23.810;2023-12-20T08:53:53;95339.13;;;2.97;76.20
55466;BME280;41329;41.594;23.810;2023-12-20T08:56:18;95334.25;;;3.11;76.18
55466;BME280;41329;41.594;23.810;2023-12-20T08:58:45;95328.81;;;3.02;75.81
55466;BME280;41329;41.594;23.810;2023-12-20T09:01:10;95326.75;;;2.99;76.17
55466;BME280;41329;41.594;23.810;2023-12-20T09:03:36;95309.03;;;3.05;76.48
55466;BME280;41329;41.594;23.810;2023-12-20T09:06:01;95316.88;;;3.24;76.75
55466;BME280;41329;41.594;23.810;2023-12-20T09:08:28;95304.00;;;3.24;77.01
55466;BME280;41329;41.594;23.810;2023-12-20T09:10:53;95306.06;;;3.36;76.69
55466;BME280;41329;41.594;23.810;2023-12-20T09:13:18;95301.16;;;3.50;77.18
55466;BME280;41329;41.594;23.810;2023-12-20T09:15:44;95296.31;;;3.64;77.10
55466;BME280;41329;41.594;23.810;2023-12-20T09:18:09;95288.09;;;3.64;76.74
55466;BME280;41329;41.594;23.810;2023-12-20T09:20:35;95282.34;;;3.86;76.69
55466;BME280;41329;41.594;23.810;2023-12-20T09:23:00;95261.72;;;3.88;76.86
55466;BME280;41329;41.594;23.810;2023-12-20T09:25:26;95252.13;;;4.03;76.85
55466;BME280;41329;41.594;23.810;2023-12-20T09:27:54;95273.91;;;4.40;77.02
55466;BME280;41329;41.594;23.810;2023-12-20T09:30:20;95269.50;;;4.48;76.41
55466;BME280;41329;41.594;23.810;2023-12-20T09:32:45;95255.28;;;4.54;76.12
55466;BME280;41329;41.594;23.810;2023-12-20T09:35:11;95256.22;;;4.58;76.12
55466;BME280;41329;41.594;23.810;2023-12-20T09:37:36;95246.03;;;4.79;76.30
55466;BME280;41329;41.594;23.810;2023-12-20T09:40:03;95242.03;;;4.89;75.52
55466;BME280;41329;41.594;23.810;2023-12-20T09:42:58;95232.94;;;5.09;75.29
55466;BME280;41329;41.594;23.810;2023-12-20T09:45:30;95233.22;;;5.28;76.18
55466;BME280;41329;41.594;23.810;2023-12-20T09:47:57;95216.22;;;5.34;74.77
55466;BME280;41329;41.594;23.810;2023-12-20T09:50:23;95210.72;;;5.34;74.41
55466;BME280;41329;41.594;23.810;2023-12-20T09:52:53;95201.47;;;5.51;74.49
55466;BME280;41329;41.594;23.810;2023-12-20T09:55:21;95196.66;;;5.72;75.70
55466;BME280;41329;41.594;23.810;2023-12-20T09:57:47;95172.63;;;5.93;75.32
55466;BME280;41329;41.594;23.810;2023-12-20T10:00:14;95181.41;;;6.10;75.57
55466;BME280;41329;41.594;23.810;2023-12-20T10:02:46;95168.84;;;6.09;74.98
55466;BME280;41329;41.594;23.810;2023-12-20T10:05:16;95159.72;;;6.33;75.19
55466;BME280;41329;41.594;23.810;2023-12-20T10:07:44;95167.75;;;6.53;74.14
55466;BME280;41329;41.594;23.810;2023-12-20T10:10:12;95156.50;;;6.58;72.73
55466;BME280;41329;41.594;23.810;2023-12-20T10:12:38;95145.47;;;6.71;72.43
55466;BME280;41329;41.594;23.810;2023-12-20T10:15:05;95122.50;;;6.79;72.97
55466;BME280;41329;41.594;23.810;2023-12-20T10:17:31;95134.16;;;7.03;72.24
55466;BME280;41329;41.594;23.810;2023-12-20T10:19:57;95132.66;;;7.21;72.00
55466;BME280;41329;41.594;23.810;2023-12-20T10:22:23;95107.00;;;7.33;71.96
55466;BME280;41329;41.594;23.810;2023-12-20T10:24:48;95120.81;;;7.67;72.67
55466;BME280;41329;41.594;23.810;2023-12-20T10:27:14;95109.22;;;7.77;69.47
55466;BME280;41329;41.594;23.810;2023-12-20T10:29:39;95107.41;;;7.85;68.80
55466;BME280;41329;41.594;23.810;2023-12-20T10:32:25;95101.28;;;7.91;67.04
55466;BME280;41329;41.594;23.810;2023-12-20T10:34:51;95092.09;;;8.03;67.02
55466;BME280;41329;41.594;23.810;2023-12-20T10:37:17;95086.38;;;8.11;66.54
55466;BME280;41329;41.594;23.810;2023-12-20T10:39:43;95075.59;;;8.22;67.19
55466;BME280;41329;41.594;23.810;2023-12-20T10:42:11;95073.19;;;8.39;66.20
55466;BME280;41329;41.594;23.810;2023-12-20T10:44:37;95066.78;;;8.54;65.15
55466;BME280;41329;41.594;23.810;2023-12-20T10:47:03;95066.72;;;8.70;65.41
55466;BME280;41329;41.594;23.810;2023-12-20T10:49:30;95053.88;;;8.81;65.50
55466;BME280;41329;41.594;23.810;2023-12-20T10:51:59;95050.59;;;8.94;63.74
55466;BME280;41329;41.594;23.810;2023-12-20T10:54:27;95031.69;;;8.96;62.62
55466;BME280;41329;41.594;23.810;2023-12-20T10:56:53;95037.97;;;9.16;62.89
55466;BME280;41329;41.594;23.810;2023-12-20T10:59:20;95039.28;;;9.25;60.87
55466;BME280;41329;41.594;23.810;2023-12-20T11:01:48;95038.53;;;9.28;60.29
55466;BME280;41329;41.594;23.810;2023-12-20T11:04:23;95008.31;;;9.13;60.08
55466;BME280;41329;41.594;23.810;2023-12-20T11:06:58;95023.56;;;9.29;60.64
55466;BME280;41329;41.594;23.810;2023-12-20T11:09:40;95024.69;;;9.25;58.75
55466;BME280;41329;41.594;23.810;2023-12-20T11:12:13;95017.56;;;9.24;60.18
55466;BME280;41329;41.594;23.810;2023-12-20T11:14:51;95006.09;;;9.22;59.81
55466;BME280;41329;41.594;23.810;2023-12-20T11:17:18;95012.63;;;9.36;60.33
55466;BME280;41329;41.594;23.810;2023-12-20T11:22:24;95000.03;;;9.65;58.13
55466;BME280;41329;41.594;23.810;2023-12-20T11:24:53;94987.81;;;9.66;58.33
55466;BME280;41329;41.594;23.810;2023-12-20T11:27:19;94987.31;;;9.86;58.63
55466;BME280;41329;41.594;23.810;2023-12-20T11:29:52;94984.47;;;10.09;60.19
55466;BME280;41329;41.594;23.810;2023-12-20T11:34:59;94958.38;;;10.43;57.39
55466;BME280;41329;41.594;23.810;2023-12-20T11:37:31;94944.19;;;10.48;55.84
55466;BME280;41329;41.594;23.810;2023-12-20T11:40:05;94945.50;;;10.57;53.59
55466;BME280;41329;41.594;23.810;2023-12-20T11:42:33;94957.47;;;10.72;53.51
55466;BME280;41329;41.594;23.810;2023-12-20T11:44:59;94952.44;;;10.84;55.10
55466;BME280;41329;41.594;23.810;2023-12-20T11:47:29;94946.63;;;10.96;55.67
55466;BME280;41329;41.594;23.810;2023-12-20T11:49:55;94957.00;;;11.10;55.17
55466;BME280;41329;41.594;23.810;2023-12-20T11:52:21;94932.56;;;11.19;53.79
55466;BME280;41329;41.594;23.810;2023-12-20T11:54:46;94938.91;;;11.19;54.36
55466;BME280;41329;41.594;23.810;2023-12-20T11:57:13;94927.84;;;11.26;53.27
55466;BME280;41329;41.594;23.810;2023-12-20T11:59:41;94919.22;;;11.35;52.86
55466;BME280;41329;41.594;23.810;2023-12-20T12:02:07;94930.38;;;11.49;52.72
55466;BME280;41329;41.594;23.810;2023-12-20T12:04:34;94923.78;;;11.64;52.79
55466;BME280;41329;41.594;23.810;2023-12-20T12:06:59;94899.22;;;11.62;51.29
55466;BME280;41329;41.594;23.810;2023-12-20T12:09:25;94900.88;;;11.81;51.91
55466;BME280;41329;41.594;23.810;2023-12-20T12:11:50;94911.25;;;12.05;51.93
55466;BME280;41329;41.594;23.810;2023-12-20T12:14:16;94909.72;;;12.18;51.80
55466;BME280;41329;41.594;23.810;2023-12-20T12:16:42;94900.19;;;12.15;51.43
55466;BME280;41329;41.594;23.810;2023-12-20T12:19:20;94899.81;;;12.17;51.50
55466;BME280;41329;41.594;23.810;2023-12-20T12:21:45;94889.94;;;12.30;49.44
55466;BME280;41329;41.594;23.810;2023-12-20T12:24:11;94893.53;;;12.41;48.56
55466;BME280;41329;41.594;23.810;2023-12-20T12:26:36;94883.22;;;12.42;49.47
55466;BME280;41329;41.594;23.810;2023-12-20T12:29:02;94878.88;;;12.44;47.33
55466;BME280;41329;41.594;23.810;2023-12-20T12:31:28;94882.03;;;12.35;47.06
55466;BME280;41329;41.594;23.810;2023-12-20T12:33:53;94877.28;;;12.36;48.75
55466;BME280;41329;41.594;23.810;2023-12-20T12:36:19;94872.13;;;12.42;48.23
55466;BME280;41329;41.594;23.810;2023-12-20T12:38:44;94863.41;;;12.36;46.51
55466;BME280;41329;41.594;23.810;2023-12-20T12:41:12;94870.53;;;12.40;46.56
55466;BME280;41329;41.594;23.810;2023-12-20T12:43:38;94865.00;;;12.33;47.37
55466;BME280;41329;41.594;23.810;2023-12-20T12:46:03;94853.09;;;12.36;47.40
55466;BME280;41329;41.594;23.810;2023-12-20T12:48:29;94868.16;;;12.32;46.92
55466;BME280;41329;41.594;23.810;2023-12-20T12:50:55;94872.13;;;12.42;47.23
55466;BME280;41329;41.594;23.810;2023-12-20T12:53:24;94827.69;;;12.17;47.06
55466;BME280;41329;41.594;23.810;2023-12-20T12:55:50;94861.44;;;12.43;47.42
55466;BME280;41329;41.594;23.810;2023-12-20T12:58:15;94845.19;;;12.56;48.50
55466;BME280;41329;41.594;23.810;2023-12-20T13:00:40;94854.72;;;12.90;47.03